Time;durP1;ratioP1;P1;durP2;ratioP2;P2;SDS_P1;SDS_P2;PMS_P1;PMS_P2;Temp;Humidity;BMP_temperature;BMP_pressure;BME280_temperature;BME280_humidity;BME280_pressure;Samples;Min_cycle;Max_cycle;Signal;HPM_P1;HPM_P2
2021/12/12 00:02:17;;;;;;;4.07;2.65;;;;;;;;;;5034467;28;20458;-72
2021/12/12 00:04:46;;;;;;;1.75;1.27;;;;;;;;;;5037535;28;20021;-71
2021/12/12 00:07:13;;;;;;;0.95;0.80;;;;;;;;;;5032655;28;20100;-71
2021/12/12 00:09:41;;;;;;;6.68;2.22;;;;;;;;;;5037894;28;20594;-71
2021/12/12 00:12:13;;;;;;;2.03;1.13;;;;;;;;;;5024429;28;20517;-71
2021/12/12 00:14:39;;;;;;;3.38;1.77;;;;;;;;;;5027114;28;20037;-71
2021/12/12 00:17:07;;;;;;;1.25;0.95;;;;;;;;;;5030287;28;20104;-71
2021/12/12 00:19:35;;;;;;;0.30;0.30;;;;;;;;;;5035930;28;20021;-71
2021/12/12 00:22:02;;;;;;;1.02;1.02;;;;;;;;;;5022947;28;20029;-71
2021/12/12 00:24:29;;;;;;;0.80;0.80;;;;;;;;;;5039926;28;20053;-72
2021/12/12 00:26:56;;;;;;;3.17;1.27;;;;;;;;;;5039614;28;20492;-71
2021/12/12 00:29:23;;;;;;;1.00;1.00;;;;;;;;;;5030489;28;20396;-72
2021/12/12 00:31:50;;;;;;;1.13;1.13;;;;;;;;;;5030240;28;20049;-71
2021/12/12 00:34:16;;;;;;;1.55;1.25;;;;;;;;;;5043132;28;20511;-71
2021/12/12 00:36:42;;;;;;;3.05;1.98;;;;;;;;;;5026755;28;20083;-71
2021/12/12 00:39:10;;;;;;;2.60;1.17;;;;;;;;;;5031472;28;20020;-71
2021/12/12 00:41:42;;;;;;;0.73;0.70;;;;;;;;;;5041688;28;20107;-72
2021/12/12 00:44:08;;;;;;;0.77;0.77;;;;;;;;;;5023859;28;20034;-71
2021/12/12 00:46:35;;;;;;;0.77;0.77;;;;;;;;;;5029775;28;20037;-71
2021/12/12 00:49:01;;;;;;;1.50;1.40;;;;;;;;;;5030194;28;20036;-71
2021/12/12 00:51:29;;;;;;;1.02;0.98;;;;;;;;;;5038200;28;20028;-71
2021/12/12 00:53:55;;;;;;;1.13;1.08;;;;;;;;;;5039594;28;20040;-71
2021/12/12 00:56:22;;;;;;;2.05;1.85;;;;;;;;;;5032301;28;20022;-71
2021/12/12 00:58:48;;;;;;;0.77;0.77;;;;;;;;;;5027312;28;20041;-71
2021/12/12 01:01:16;;;;;;;1.23;1.13;;;;;;;;;;5030304;28;20025;-71
2021/12/12 01:03:44;;;;;;;1.25;1.15;;;;;;;;;;5027418;28;20042;-71
2021/12/12 01:06:12;;;;;;;0.93;0.93;;;;;;;;;;5025761;28;20035;-71
2021/12/12 01:08:38;;;;;;;0.77;0.75;;;;;;;;;;5045602;28;20236;-71
2021/12/12 01:11:06;;;;;;;2.25;2.05;;;;;;;;;;5031064;28;20116;-71
2021/12/12 01:13:32;;;;;;;0.90;0.90;;;;;;;;;;5028091;28;20029;-72
2021/12/12 01:16:06;;;;;;;0.70;0.70;;;;;;;;;;5021292;28;20026;-71
2021/12/12 01:18:34;;;;;;;1.42;1.33;;;;;;;;;;5026396;28;20056;-72
2021/12/12 01:21:12;;;;;;;4.03;1.50;;;;;;;;;;5027447;28;20361;-71
2021/12/12 01:23:40;;;;;;;2.45;2.25;;;;;;;;;;5029796;28;20554;-71
2021/12/12 01:26:07;;;;;;;0.90;0.90;;;;;;;;;;5039341;28;20033;-72
2021/12/12 01:28:35;;;;;;;2.08;1.95;;;;;;;;;;5029960;28;20427;-71
2021/12/12 01:31:04;;;;;;;4.47;1.90;;;;;;;;;;5028414;28;20605;-71
2021/12/12 01:33:34;;;;;;;4.60;1.80;;;;;;;;;;5042236;28;20016;-71
2021/12/12 01:36:06;;;;;;;3.10;0.93;;;;;;;;;;5039508;28;20048;-71
2021/12/12 01:38:52;;;;;;;;;;;;;;;;;;5036491;28;20024;-71
2021/12/12 01:41:20;;;;;;;0.40;0.40;;;;;;;;;;5037122;28;19909;-71
2021/12/12 01:43:47;;;;;;;0.60;0.60;;;;;;;;;;5037192;28;20052;-72
2021/12/12 01:46:19;;;;;;;2.58;1.88;;;;;;;;;;5027244;28;20038;-71
2021/12/12 01:48:53;;;;;;;0.52;0.52;;;;;;;;;;5030139;28;20033;-71
2021/12/12 01:51:19;;;;;;;1.17;1.05;;;;;;;;;;5026546;28;20127;-71
2021/12/12 01:53:47;;;;;;;0.45;0.45;;;;;;;;;;5033227;28;20028;-71
2021/12/12 01:56:25;;;;;;;1.45;0.95;;;;;;;;;;5038543;28;20040;-71
2021/12/12 01:58:54;;;;;;;3.92;1.65;;;;;;;;;;5029792;28;20037;-71
2021/12/12 02:01:23;;;;;;;0.98;0.80;;;;;;;;;;5034204;28;20028;-72
2021/12/12 02:03:51;;;;;;;2.03;1.52;;;;;;;;;;5034018;28;20041;-71
2021/12/12 02:06:18;;;;;;;2.05;0.95;;;;;;;;;;5036218;28;20021;-71
2021/12/12 02:08:45;;;;;;;2.30;2.10;;;;;;;;;;5027098;28;20455;-71
2021/12/12 02:11:18;;;;;;;3.40;2.15;;;;;;;;;;5023602;28;20500;-71
2021/12/12 02:13:46;;;;;;;1.40;0.57;;;;;;;;;;5039011;28;20381;-71
2021/12/12 02:16:12;;;;;;;0.45;0.45;;;;;;;;;;5038930;28;20021;-71
2021/12/12 02:18:41;;;;;;;3.33;2.30;;;;;;;;;;5029295;28;20033;-71
2021/12/12 02:21:24;;;;;;;2.03;1.83;;;;;;;;;;5030031;28;20060;-71
2021/12/12 02:37:25;;;;;;;1.95;1.00;;;;;;;;;;5026041;28;20505;-71
2021/12/12 02:39:51;;;;;;;1.25;0.82;;;;;;;;;;5023333;28;20341;-72
2021/12/12 02:42:20;;;;;;;1.13;1.08;;;;;;;;;;5025207;28;20056;-71
2021/12/12 02:44:48;;;;;;;1.42;1.33;;;;;;;;;;5032896;28;20110;-72
2021/12/12 02:47:18;;;;;;;0.98;0.98;;;;;;;;;;5032103;28;20128;-71
2021/12/12 02:50:08;;;;;;;1.65;1.25;;;;;;;;;;5032165;28;20025;-72
2021/12/12 02:52:33;;;;;;;0.20;0.20;;;;;;;;;;5036084;28;20036;-71
2021/12/12 02:55:06;;;;;;;0.82;0.82;;;;;;;;;;5026555;28;20017;-71
2021/12/12 02:57:32;;;;;;;0.73;0.73;;;;;;;;;;5038604;28;20044;-72
2021/12/12 02:59:58;;;;;;;3.53;2.30;;;;;;;;;;5025608;28;20484;-71
2021/12/12 03:02:28;;;;;;;1.08;0.43;;;;;;;;;;5026094;28;20036;-71
2021/12/12 03:04:55;;;;;;;1.15;1.05;;;;;;;;;;5030518;28;20056;-71
2021/12/12 03:07:21;;;;;;;0.95;0.65;;;;;;;;;;5034026;28;20052;-72
2021/12/12 03:09:54;;;;;;;0.82;0.77;;;;;;;;;;5036727;28;20033;-71
2021/12/12 03:12:23;;;;;;;1.13;1.08;;;;;;;;;;5038705;28;20022;-71
2021/12/12 03:14:49;;;;;;;0.55;0.55;;;;;;;;;;5035078;28;20442;-71
2021/12/12 03:17:16;;;;;;;4.47;2.28;;;;;;;;;;5041708;28;20395;-71
2021/12/12 03:19:47;;;;;;;2.05;1.85;;;;;;;;;;5029525;28;20027;-72
2021/12/12 03:22:15;;;;;;;0.65;0.35;;;;;;;;;;5033081;28;20052;-71
2021/12/12 03:24:41;;;;;;;0.88;0.50;;;;;;;;;;5035486;28;20059;-71
2021/12/12 03:27:07;;;;;;;1.67;0.93;;;;;;;;;;5039885;28;20501;-71
2021/12/12 03:29:33;;;;;;;1.55;1.45;;;;;;;;;;5036919;28;20025;-71
2021/12/12 03:32:02;;;;;;;0.55;0.55;;;;;;;;;;5034471;28;20124;-71
2021/12/12 03:34:31;;;;;;;1.85;1.50;;;;;;;;;;5032103;28;20083;-71
2021/12/12 03:36:57;;;;;;;1.23;1.02;;;;;;;;;;5026720;28;20084;-71
2021/12/12 03:39:28;;;;;;;1.35;0.95;;;;;;;;;;5030569;28;20452;-71
2021/12/12 03:41:56;;;;;;;3.83;2.03;;;;;;;;;;5023636;28;20067;-71
2021/12/12 03:44:24;;;;;;;0.95;0.95;;;;;;;;;;5027624;28;20034;-71
2021/12/12 03:46:55;;;;;;;2.00;1.90;;;;;;;;;;5027754;28;20504;-71
2021/12/12 03:49:21;;;;;;;1.58;1.48;;;;;;;;;;5042210;28;20466;-71
2021/12/12 03:51:47;;;;;;;1.70;1.60;;;;;;;;;;5031361;28;20029;-71
2021/12/12 03:54:14;;;;;;;0.35;0.35;;;;;;;;;;5036537;28;20384;-71
2021/12/12 03:56:41;;;;;;;2.90;1.00;;;;;;;;;;5032978;28;20035;-71
2021/12/12 03:59:07;;;;;;;1.40;1.23;;;;;;;;;;5045786;28;20025;-71
2021/12/12 04:01:41;;;;;;;0.52;0.52;;;;;;;;;;5027720;28;20055;-71
2021/12/12 04:04:12;;;;;;;0.63;0.63;;;;;;;;;;5026009;28;20519;-71
2021/12/12 04:06:38;;;;;;;1.42;1.05;;;;;;;;;;5036986;28;20079;-71
2021/12/12 04:09:05;;;;;;;5.82;1.63;;;;;;;;;;5027091;28;20488;-71
2021/12/12 04:11:34;;;;;;;0.50;0.50;;;;;;;;;;5027362;28;20033;-71
2021/12/12 04:14:02;;;;;;;0.82;0.82;;;;;;;;;;5027766;28;20124;-71
2021/12/12 04:16:29;;;;;;;1.40;1.30;;;;;;;;;;5031583;28;20025;-71
2021/12/12 04:18:55;;;;;;;2.72;1.60;;;;;;;;;;5031904;28;20112;-71
2021/12/12 04:21:22;;;;;;;0.73;0.57;;;;;;;;;;5038495;28;20066;-71
2021/12/12 04:23:48;;;;;;;1.45;1.35;;;;;;;;;;5029271;28;20494;-71
2021/12/12 04:26:44;;;;;;;0.52;0.52;;;;;;;;;;5031626;28;20659;-71
2021/12/12 04:29:15;;;;;;;0.47;0.47;;;;;;;;;;5034246;28;20052;-71
2021/12/12 04:31:44;;;;;;;0.38;0.38;;;;;;;;;;5027513;28;20036;-71
2021/12/12 04:34:10;;;;;;;0.85;0.85;;;;;;;;;;5030890;28;20131;-71
2021/12/12 04:36:38;;;;;;;1.17;0.60;;;;;;;;;;5030984;28;20435;-71
2021/12/12 04:39:07;;;;;;;1.05;0.95;;;;;;;;;;5029951;28;20110;-71
2021/12/12 04:41:33;;;;;;;1.02;0.98;;;;;;;;;;5036263;28;20762;-72
2021/12/12 04:43:58;;;;;;;3.40;1.15;;;;;;;;;;5037098;28;20033;-71
2021/12/12 04:46:36;;;;;;;5.15;1.23;;;;;;;;;;5028506;28;20056;-71
2021/12/12 04:51:50;;;;;;;0.82;0.82;;;;;;;;;;5029813;28;20082;-71
2021/12/12 04:54:36;;;;;;;1.75;1.27;;;;;;;;;;5022086;28;20033;-71
2021/12/12 04:57:13;;;;;;;1.60;1.50;;;;;;;;;;5041585;28;20029;-71
2021/12/12 04:59:43;;;;;;;0.50;0.50;;;;;;;;;;5040811;28;20100;-72
2021/12/12 05:02:15;;;;;;;1.48;1.38;;;;;;;;;;5040412;28;20025;-72
2021/12/12 05:04:50;;;;;;;2.92;1.98;;;;;;;;;;5030581;28;20491;-71
2021/12/12 05:07:18;;;;;;;0.40;0.40;;;;;;;;;;5027230;28;20064;-71
2021/12/12 05:09:50;;;;;;;0.38;0.38;;;;;;;;;;5027029;28;20029;-72
2021/12/12 05:12:21;;;;;;;0.25;0.25;;;;;;;;;;5032079;28;20083;-71
2021/12/12 05:14:52;;;;;;;1.27;1.17;;;;;;;;;;5036735;28;20043;-71
2021/12/12 05:17:21;;;;;;;0.50;0.50;;;;;;;;;;5034630;28;20045;-71
2021/12/12 05:19:50;;;;;;;1.45;1.17;;;;;;;;;;5031289;28;20029;-71
2021/12/12 05:22:18;;;;;;;0.55;0.55;;;;;;;;;;5033004;28;20037;-72
2021/12/12 05:24:44;;;;;;;0.77;0.77;;;;;;;;;;5037694;28;20053;-72
2021/12/12 05:27:13;;;;;;;2.83;1.50;;;;;;;;;;5034290;28;20475;-72
2021/12/12 05:29:42;;;;;;;17.25;1.20;;;;;;;;;;5037603;28;20026;-71
2021/12/12 05:32:09;;;;;;;0.43;0.43;;;;;;;;;;5035877;28;20702;-71
2021/12/12 05:34:36;;;;;;;3.05;1.73;;;;;;;;;;5026933;28;20091;-72
2021/12/12 05:37:03;;;;;;;0.40;0.40;;;;;;;;;;5023477;28;20021;-72
2021/12/12 05:39:30;;;;;;;6.43;1.20;;;;;;;;;;5028213;28;20032;-73
2021/12/12 05:41:57;;;;;;;0.85;0.82;;;;;;;;;;5040258;28;20480;-72
2021/12/12 05:44:23;;;;;;;1.15;0.93;;;;;;;;;;5033538;28;20443;-71
2021/12/12 05:46:49;;;;;;;1.02;1.02;;;;;;;;;;5029935;28;20383;-71
2021/12/12 05:49:15;;;;;;;0.63;0.30;;;;;;;;;;5035654;28;20033;-71
2021/12/12 05:51:41;;;;;;;0.77;0.77;;;;;;;;;;5030519;28;20029;-71
2021/12/12 05:54:07;;;;;;;21.75;1.13;;;;;;;;;;5032017;28;20033;-72
2021/12/12 05:56:35;;;;;;;5.30;0.95;;;;;;;;;;5033847;28;20053;-72
2021/12/12 05:59:01;;;;;;;1.05;1.05;;;;;;;;;;5034594;28;20048;-72
2021/12/12 06:01:27;;;;;;;0.25;0.25;;;;;;;;;;5044783;28;20024;-71
2021/12/12 06:03:53;;;;;;;1.58;1.48;;;;;;;;;;5045706;28;20044;-72
2021/12/12 06:06:21;;;;;;;1.13;1.02;;;;;;;;;;5028883;28;20028;-71
2021/12/12 06:08:48;;;;;;;0.52;0.52;;;;;;;;;;5034231;28;20057;-71
2021/12/12 06:11:15;;;;;;;4.10;2.83;;;;;;;;;;5026146;28;20041;-71
2021/12/12 06:13:41;;;;;;;0.90;0.90;;;;;;;;;;5037234;28;20036;-71
2021/12/12 06:16:18;;;;;;;0.85;0.85;;;;;;;;;;5029212;28;20215;-71
2021/12/12 06:18:44;;;;;;;1.55;1.33;;;;;;;;;;5029882;28;20051;-71
2021/12/12 06:21:10;;;;;;;0.20;0.20;;;;;;;;;;5026311;28;20120;-71
2021/12/12 06:23:36;;;;;;;0.40;0.40;;;;;;;;;;5024211;28;20056;-71
2021/12/12 06:26:05;;;;;;;1.65;1.10;;;;;;;;;;5027521;28;20029;-71
2021/12/12 06:28:33;;;;;;;0.90;0.90;;;;;;;;;;5038508;28;20037;-71
2021/12/12 06:30:59;;;;;;;0.45;0.45;;;;;;;;;;5032583;28;20107;-72
2021/12/12 06:33:26;;;;;;;1.25;1.25;;;;;;;;;;5034055;28;20124;-72
2021/12/12 06:35:52;;;;;;;3.20;2.28;;;;;;;;;;5035797;28;20478;-72
2021/12/12 06:38:19;;;;;;;1.08;1.00;;;;;;;;;;5031778;28;20026;-72
2021/12/12 06:40:45;;;;;;;0.47;0.47;;;;;;;;;;5026979;28;20025;-72
2021/12/12 06:43:12;;;;;;;0.60;0.57;;;;;;;;;;5035132;28;20025;-71
2021/12/12 06:45:39;;;;;;;0.88;0.88;;;;;;;;;;5036267;28;20530;-71
2021/12/12 06:48:05;;;;;;;1.33;1.02;;;;;;;;;;5029051;28;20118;-71
2021/12/12 06:50:31;;;;;;;1.15;1.15;;;;;;;;;;5028950;28;20033;-71
2021/12/12 06:52:57;;;;;;;0.77;0.77;;;;;;;;;;5021155;28;20541;-71
2021/12/12 06:55:24;;;;;;;2.05;1.70;;;;;;;;;;5027031;28;20029;-72
2021/12/12 06:57:50;;;;;;;0.50;0.50;;;;;;;;;;5024095;28;20040;-72
2021/12/12 07:00:17;;;;;;;0.10;0.10;;;;;;;;;;5028295;28;20512;-71
2021/12/12 07:02:44;;;;;;;0.63;0.63;;;;;;;;;;5026003;28;20030;-72
2021/12/12 07:05:12;;;;;;;1.23;1.23;;;;;;;;;;5029048;28;20424;-71
2021/12/12 07:07:38;;;;;;;2.28;0.95;;;;;;;;;;5025843;28;20471;-71
2021/12/12 07:10:06;;;;;;;0.75;0.45;;;;;;;;;;5031012;28;20033;-72
2021/12/12 07:12:33;;;;;;;0.60;0.60;;;;;;;;;;5028569;28;20048;-72
2021/12/12 07:14:58;;;;;;;0.70;0.70;;;;;;;;;;5030257;28;20056;-72
2021/12/12 07:17:25;;;;;;;0.30;0.30;;;;;;;;;;5025535;28;20025;-71
2021/12/12 07:19:51;;;;;;;0.60;0.60;;;;;;;;;;5030571;28;20083;-71
2021/12/12 07:22:17;;;;;;;1.67;0.80;;;;;;;;;;5032355;28;20518;-72
2021/12/12 07:24:44;;;;;;;1.00;0.95;;;;;;;;;;5020881;28;20053;-71
2021/12/12 07:27:10;;;;;;;1.23;1.13;;;;;;;;;;5030434;28;20033;-71
2021/12/12 07:29:36;;;;;;;2.40;1.85;;;;;;;;;;5027984;28;20064;-71
2021/12/12 07:32:03;;;;;;;2.22;1.48;;;;;;;;;;5030731;28;20063;-71
2021/12/12 07:34:30;;;;;;;5.55;1.67;;;;;;;;;;5022991;28;20044;-72
2021/12/12 07:36:57;;;;;;;4.85;2.67;;;;;;;;;;5026848;28;20134;-71
2021/12/12 07:39:24;;;;;;;0.20;0.20;;;;;;;;;;5029667;28;20087;-71
2021/12/12 07:41:51;;;;;;;0.40;0.40;;;;;;;;;;5028369;28;20029;-72
2021/12/12 07:44:19;;;;;;;0.98;0.90;;;;;;;;;;5041300;28;20033;-72
2021/12/12 07:46:46;;;;;;;0.55;0.55;;;;;;;;;;5041075;28;20119;-71
2021/12/12 07:49:12;;;;;;;0.63;0.63;;;;;;;;;;5026798;28;20025;-71
2021/12/12 07:51:40;;;;;;;4.32;0.70;;;;;;;;;;5028406;28;20117;-71
2021/12/12 07:54:07;;;;;;;0.40;0.40;;;;;;;;;;5023126;28;20045;-72
2021/12/12 07:56:35;;;;;;;2.35;2.15;;;;;;;;;;5029571;28;20029;-72
2021/12/12 07:59:03;;;;;;;0.73;0.73;;;;;;;;;;5030484;28;20546;-71
2021/12/12 08:01:29;;;;;;;5.18;3.05;;;;;;;;;;5031771;28;20021;-72
2021/12/12 08:03:56;;;;;;;0.60;0.60;;;;;;;;;;5031754;28;20071;-72
2021/12/12 08:06:23;;;;;;;0.57;0.57;;;;;;;;;;5036197;28;20025;-71
2021/12/12 08:08:49;;;;;;;1.75;1.55;;;;;;;;;;5036027;28;20029;-71
2021/12/12 08:11:16;;;;;;;0.57;0.57;;;;;;;;;;5027822;28;20060;-72
2021/12/12 08:13:42;;;;;;;1.17;1.17;;;;;;;;;;5032665;28;20027;-71
2021/12/12 08:16:09;;;;;;;1.05;1.05;;;;;;;;;;5039257;28;20022;-71
2021/12/12 08:18:35;;;;;;;1.40;1.30;;;;;;;;;;5030580;28;20030;-72
2021/12/12 08:21:02;;;;;;;1.38;1.08;;;;;;;;;;5026764;28;20539;-72
2021/12/12 08:23:28;;;;;;;1.05;0.93;;;;;;;;;;5032543;28;20049;-71
2021/12/12 08:25:55;;;;;;;2.67;2.22;;;;;;;;;;5025804;28;20399;-72
2021/12/12 08:28:21;;;;;;;1.73;1.63;;;;;;;;;;5023030;28;20034;-71
2021/12/12 08:31:16;;;;;;;1.38;1.27;;;;;;;;;;5028178;28;20211;-74
2021/12/12 08:33:42;;;;;;;0.93;0.75;;;;;;;;;;5030640;28;20445;-72
2021/12/12 08:36:08;;;;;;;0.80;0.80;;;;;;;;;;5026903;28;20120;-71
2021/12/12 08:38:35;;;;;;;0.28;0.28;;;;;;;;;;5042637;28;20040;-71
2021/12/12 08:41:02;;;;;;;2.97;2.05;;;;;;;;;;5026556;28;20387;-72
2021/12/12 08:43:29;;;;;;;0.98;0.88;;;;;;;;;;5038095;28;20431;-72
2021/12/12 08:46:00;;;;;;;1.35;1.23;;;;;;;;;;5032130;28;20029;-73
2021/12/12 08:48:27;;;;;;;4.85;2.70;;;;;;;;;;5026345;28;20501;-74
2021/12/12 08:50:55;;;;;;;1.58;1.48;;;;;;;;;;5042644;28;20586;-74
2021/12/12 08:53:22;;;;;;;1.40;1.30;;;;;;;;;;5038107;28;20063;-74
2021/12/12 08:55:50;;;;;;;0.38;0.38;;;;;;;;;;5030244;28;20047;-73
2021/12/12 08:58:18;;;;;;;0.57;0.57;;;;;;;;;;5032018;28;20138;-74
2021/12/12 09:00:44;;;;;;;1.25;1.25;;;;;;;;;;5042927;28;20025;-74
2021/12/12 09:03:10;;;;;;;3.25;1.27;;;;;;;;;;5029543;28;20029;-75
2021/12/12 09:05:41;;;;;;;1.20;0.68;;;;;;;;;;5030629;28;20052;-76
2021/12/12 09:08:11;;;;;;;1.67;1.58;;;;;;;;;;5032666;28;20025;-74
2021/12/12 09:10:56;;;;;;;0.90;0.90;;;;;;;;;;5020419;28;20037;-72
2021/12/12 09:13:25;;;;;;;16.30;3.10;;;;;;;;;;5040988;28;20067;-73
2021/12/12 09:15:57;;;;;;;3.40;1.85;;;;;;;;;;5042095;28;20611;-77
2021/12/12 09:18:27;;;;;;;0.10;0.10;;;;;;;;;;5030306;28;20025;-74
2021/12/12 09:20:59;;;;;;;6.25;1.75;;;;;;;;;;5029587;28;20029;-74
2021/12/12 09:23:24;;;;;;;;;;;;;;;;;;5025297;28;20041;-74
2021/12/12 09:25:57;;;;;;;0.65;0.60;;;;;;;;;;5033492;28;19908;-73
2021/12/12 09:28:32;;;;;;;0.60;0.60;;;;;;;;;;5024686;28;20519;-74
2021/12/12 09:31:01;;;;;;;1.38;1.27;;;;;;;;;;5020243;28;20033;-72
2021/12/12 09:33:33;;;;;;;0.93;0.93;;;;;;;;;;5032356;28;20035;-72
2021/12/12 09:36:05;;;;;;;0.50;0.50;;;;;;;;;;5029958;28;20079;-73
2021/12/12 09:38:31;;;;;;;0.28;0.28;;;;;;;;;;5031156;28;20021;-73
2021/12/12 09:41:08;;;;;;;4.70;2.70;;;;;;;;;;5034471;28;20542;-74
2021/12/12 09:43:34;;;;;;;0.77;0.63;;;;;;;;;;5037734;28;20561;-73
2021/12/12 09:46:27;;;;;;;3.90;1.45;;;;;;;;;;5028474;28;20030;-74
2021/12/12 09:52:04;;;;;;;0.70;0.70;;;;;;;;;;5029241;28;20048;-74
2021/12/12 09:54:53;;;;;;;1.80;1.48;;;;;;;;;;5039873;28;20035;-74
2021/12/12 09:57:22;;;;;;;5.25;2.45;;;;;;;;;;5026706;28;20726;-72
2021/12/12 10:00:08;;;;;;;1.42;1.40;;;;;;;;;;5035396;28;20570;-72
2021/12/12 10:02:54;;;;;;;1.17;1.08;;;;;;;;;;5032768;28;20044;-74
2021/12/12 10:05:39;;;;;;;1.08;0.88;;;;;;;;;;5035423;28;20049;-73
2021/12/12 10:08:25;;;;;;;0.20;0.20;;;;;;;;;;5031587;28;20543;-73
2021/12/12 10:10:57;;;;;;;2.53;1.08;;;;;;;;;;5022377;28;20048;-72
2021/12/12 10:13:29;;;;;;;1.33;1.23;;;;;;;;;;5022982;28;20064;-72
2021/12/12 10:16:01;;;;;;;1.80;0.93;;;;;;;;;;5023131;28;20053;-74
2021/12/12 10:18:38;;;;;;;2.25;1.38;;;;;;;;;;5026678;28;20056;-72
2021/12/12 10:21:10;;;;;;;2.97;1.48;;;;;;;;;;5030869;28;20021;-71
2021/12/12 10:23:39;;;;;;;1.75;0.73;;;;;;;;;;5028885;28;20053;-70
2021/12/12 10:26:07;;;;;;;3.03;2.33;;;;;;;;;;5035100;28;20564;-74
2021/12/12 10:28:52;;;;;;;0.85;0.85;;;;;;;;;;5031268;28;20021;-72
2021/12/12 10:31:33;;;;;;;1.13;1.13;;;;;;;;;;5029640;28;20032;-73
2021/12/12 10:34:03;;;;;;;0.55;0.55;;;;;;;;;;5027458;28;20534;-72
2021/12/12 10:36:33;;;;;;;0.57;0.57;;;;;;;;;;5035235;28;20048;-72
2021/12/12 10:39:07;;;;;;;1.25;1.15;;;;;;;;;;5033418;28;20383;-72
2021/12/12 10:41:47;;;;;;;4.45;1.40;;;;;;;;;;5034234;28;20029;-72
2021/12/12 10:44:15;;;;;;;1.65;0.88;;;;;;;;;;5033302;28;20036;-72
2021/12/12 10:46:51;;;;;;;6.65;1.63;;;;;;;;;;5034545;28;20396;-72
2021/12/12 10:49:25;;;;;;;8.73;1.70;;;;;;;;;;5037882;28;20036;-72
2021/12/12 10:52:02;;;;;;;1.17;0.85;;;;;;;;;;5037126;28;20102;-72
2021/12/12 10:54:54;;;;;;;1.58;1.48;;;;;;;;;;5039868;28;20461;-72
2021/12/12 10:57:33;;;;;;;1.50;1.35;;;;;;;;;;5040238;28;20515;-72
2021/12/12 11:00:16;;;;;;;0.93;0.85;;;;;;;;;;5029515;28;20025;-72
2021/12/12 11:02:48;;;;;;;1.45;1.05;;;;;;;;;;5036328;28;20020;-73
2021/12/12 11:05:17;;;;;;;1.30;1.13;;;;;;;;;;5036510;28;20056;-72
2021/12/12 11:07:47;;;;;;;3.13;1.38;;;;;;;;;;5038069;28;20021;-72
2021/12/12 11:10:21;;;;;;;0.20;0.20;;;;;;;;;;5037699;28;20202;-72
2021/12/12 11:12:51;;;;;;;2.08;0.98;;;;;;;;;;5038851;28;20036;-73
2021/12/12 11:15:29;;;;;;;1.27;1.17;;;;;;;;;;5039766;28;20029;-72
2021/12/12 11:17:59;;;;;;;3.45;2.28;;;;;;;;;;5027949;28;20021;-72
2021/12/12 11:20:28;;;;;;;2.65;1.30;;;;;;;;;;5041274;28;20132;-72
2021/12/12 11:22:56;;;;;;;1.50;1.40;;;;;;;;;;5032666;28;20495;-72
2021/12/12 11:25:28;;;;;;;1.85;1.52;;;;;;;;;;5032171;28;20033;-72
2021/12/12 11:27:56;;;;;;;;;;;;;;;;;;5032438;28;20033;-72
2021/12/12 11:30:25;;;;;;;0.55;0.55;;;;;;;;;;5036163;28;19915;-72
2021/12/12 11:32:52;;;;;;;3.38;1.08;;;;;;;;;;5034950;28;20021;-72
2021/12/12 11:35:21;;;;;;;0.30;0.30;;;;;;;;;;5040665;28;20032;-72
2021/12/12 11:37:52;;;;;;;1.13;1.13;;;;;;;;;;5042332;28;20021;-72
2021/12/12 11:40:30;;;;;;;0.75;0.73;;;;;;;;;;5037222;28;20029;-73
2021/12/12 11:43:03;;;;;;;1.98;1.80;;;;;;;;;;5039582;28;20037;-73
2021/12/12 11:45:39;;;;;;;0.70;0.70;;;;;;;;;;5037448;28;20146;-73
2021/12/12 11:48:21;;;;;;;1.95;1.85;;;;;;;;;;5042876;28;20037;-72
2021/12/12 11:50:51;;;;;;;2.95;2.08;;;;;;;;;;5042897;28;20510;-72
2021/12/12 11:53:21;;;;;;;0.52;0.52;;;;;;;;;;5042213;28;20033;-72
2021/12/12 11:55:59;;;;;;;1.92;1.75;;;;;;;;;;5037668;28;20128;-72
2021/12/12 11:58:37;;;;;;;1.27;1.17;;;;;;;;;;5035162;28;21842;-73
2021/12/12 12:01:14;;;;;;;0.50;0.43;;;;;;;;;;5033463;28;20060;-78
2021/12/12 12:03:58;;;;;;;0.28;0.28;;;;;;;;;;5035240;28;20163;-84
2021/12/12 12:06:30;;;;;;;1.65;1.08;;;;;;;;;;5042791;28;20033;-74
2021/12/12 12:08:56;;;;;;;;;;;;;;;;;;5032624;28;20028;-73
2021/12/12 12:11:40;;;;;;;0.20;0.20;;;;;;;;;;5034717;28;19952;-71
2021/12/12 12:14:31;;;;;;;2.33;1.50;;;;;;;;;;5038746;28;20043;-71
2021/12/12 12:17:08;;;;;;;1.00;1.00;;;;;;;;;;5040592;28;20025;-70
2021/12/12 12:19:46;;;;;;;1.83;1.75;;;;;;;;;;5035920;28;20033;-70
2021/12/12 12:22:23;;;;;;;0.47;0.32;;;;;;;;;;5024536;28;20025;-71
2021/12/12 12:25:15;;;;;;;2.58;0.82;;;;;;;;;;5028035;28;20041;-72
2021/12/12 12:27:45;;;;;;;0.57;0.57;;;;;;;;;;5032323;28;20041;-71
2021/12/12 12:30:33;;;;;;;1.00;1.00;;;;;;;;;;5035359;28;20074;-72
2021/12/12 12:33:18;;;;;;;1.08;0.98;;;;;;;;;;5039074;28;20024;-73
2021/12/12 12:36:03;;;;;;;1.70;1.60;;;;;;;;;;5034928;28;20032;-71
2021/12/12 12:38:51;;;;;;;0.30;0.30;;;;;;;;;;5028952;28;20037;-70
2021/12/12 12:41:36;;;;;;;3.08;1.55;;;;;;;;;;5031881;28;20025;-70
2021/12/12 12:44:20;;;;;;;0.75;0.75;;;;;;;;;;5033838;28;20835;-71
2021/12/12 12:47:05;;;;;;;4.88;1.38;;;;;;;;;;5034288;28;20170;-69
2021/12/12 12:49:43;;;;;;;1.20;1.10;;;;;;;;;;5021654;28;20851;-70
2021/12/12 12:52:22;;;;;;;6.55;1.20;;;;;;;;;;5024588;28;20033;-69
2021/12/12 12:54:57;;;;;;;1.40;1.10;;;;;;;;;;5023334;28;20125;-70
2021/12/12 12:57:25;;;;;;;0.63;0.63;;;;;;;;;;5026719;28;20521;-68
2021/12/12 12:59:57;;;;;;;1.30;1.25;;;;;;;;;;5024051;28;20059;-68
2021/12/12 13:02:26;;;;;;;0.50;0.50;;;;;;;;;;5024786;28;20017;-69
2021/12/12 13:05:07;;;;;;;0.68;0.68;;;;;;;;;;5036534;28;20033;-69
2021/12/12 13:07:52;;;;;;;1.17;1.17;;;;;;;;;;5041177;28;20042;-70
2021/12/12 13:10:21;;;;;;;2.30;1.52;;;;;;;;;;5035780;28;20042;-70
2021/12/12 13:12:53;;;;;;;1.38;1.23;;;;;;;;;;5031803;28;20091;-69
2021/12/12 13:15:32;;;;;;;1.27;0.88;;;;;;;;;;5023092;28;20025;-69
2021/12/12 13:18:08;;;;;;;0.95;0.88;;;;;;;;;;5024250;28;20025;-69
2021/12/12 13:20:48;;;;;;;1.30;1.30;;;;;;;;;;5033335;28;20033;-69
2021/12/12 13:23:23;;;;;;;2.17;0.95;;;;;;;;;;5029238;28;20498;-69
2021/12/12 13:26:03;;;;;;;1.23;0.95;;;;;;;;;;5034934;28;20037;-70
2021/12/12 13:28:35;;;;;;;1.20;1.10;;;;;;;;;;5029573;28;20029;-69
2021/12/12 13:31:01;;;;;;;1.83;1.10;;;;;;;;;;5040708;28;20715;-69
2021/12/12 13:33:32;;;;;;;0.70;0.70;;;;;;;;;;5041300;28;20061;-70
2021/12/12 13:36:10;;;;;;;0.40;0.40;;;;;;;;;;5024411;28;20033;-70
2021/12/12 13:38:55;;;;;;;0.80;0.70;;;;;;;;;;5029909;28;20437;-70
2021/12/12 13:41:33;;;;;;;1.83;1.65;;;;;;;;;;5024011;28;20091;-70
2021/12/12 13:44:04;;;;;;;1.77;1.42;;;;;;;;;;5027353;28;20049;-71
2021/12/12 13:46:30;;;;;;;;;;;;;;;;;;5029955;28;20029;-71
2021/12/12 13:49:01;;;;;;;0.25;0.25;;;;;;;;;;5035147;28;19915;-70
2021/12/12 13:51:46;;;;;;;0.75;0.75;;;;;;;;;;5040806;28;20021;-70
2021/12/12 13:54:21;;;;;;;0.43;0.43;;;;;;;;;;5028986;28;20040;-70
2021/12/12 13:57:02;;;;;;;1.92;0.60;;;;;;;;;;5028511;28;20057;-70
2021/12/12 13:59:28;;;;;;;1.55;1.17;;;;;;;;;;5030998;28;20518;-70
2021/12/12 14:02:00;;;;;;;0.82;0.82;;;;;;;;;;5033496;28;20072;-70
2021/12/12 14:04:41;;;;;;;0.68;0.68;;;;;;;;;;5026097;28;20105;-70
2021/12/12 14:07:07;;;;;;;1.75;1.58;;;;;;;;;;5024839;28;20013;-70
2021/12/12 14:09:34;;;;;;;0.35;0.35;;;;;;;;;;5028343;28;20116;-70
2021/12/12 14:12:00;;;;;;;1.40;0.70;;;;;;;;;;5025258;28;20492;-70
2021/12/12 14:14:30;;;;;;;2.47;0.75;;;;;;;;;;5049172;28;20025;-70
2021/12/12 14:17:02;;;;;;;0.40;0.40;;;;;;;;;;5040416;28;20021;-69
2021/12/12 14:19:33;;;;;;;2.05;1.95;;;;;;;;;;5023187;28;20032;-70
2021/12/12 14:21:59;;;;;;;1.05;0.98;;;;;;;;;;5038864;28;20021;-69
2021/12/12 14:24:26;;;;;;;0.50;0.50;;;;;;;;;;5032586;28;20440;-70
2021/12/12 14:26:52;;;;;;;0.98;0.98;;;;;;;;;;5032075;28;20059;-69
2021/12/12 14:29:20;;;;;;;0.10;0.10;;;;;;;;;;5035453;28;20361;-69
2021/12/12 14:31:50;;;;;;;7.13;1.85;;;;;;;;;;5033594;28;20041;-69
2021/12/12 14:34:20;;;;;;;2.67;1.90;;;;;;;;;;5029165;28;20053;-70
2021/12/12 14:36:48;;;;;;;0.63;0.63;;;;;;;;;;5028549;28;20034;-69
2021/12/12 14:39:15;;;;;;;1.75;1.05;;;;;;;;;;5021246;28;20120;-69
2021/12/12 14:41:44;;;;;;;5.50;1.95;;;;;;;;;;5044715;28;20523;-71
2021/12/12 14:44:15;;;;;;;1.75;1.63;;;;;;;;;;5032222;28;20567;-72
2021/12/12 14:46:44;;;;;;;0.52;0.30;;;;;;;;;;5033525;28;20030;-82
2021/12/12 14:49:14;;;;;;;0.73;0.73;;;;;;;;;;5026216;28;20033;-74
2021/12/12 14:51:50;;;;;;;0.30;0.30;;;;;;;;;;5038654;28;20025;-72
2021/12/12 14:54:19;;;;;;;0.15;0.15;;;;;;;;;;5025490;28;20094;-73
2021/12/12 14:56:48;;;;;;;1.00;1.00;;;;;;;;;;5033851;28;20025;-71
2021/12/12 14:59:21;;;;;;;0.50;0.50;;;;;;;;;;5032673;28;20111;-74
2021/12/12 15:01:50;;;;;;;1.10;0.77;;;;;;;;;;5036139;28;20482;-74
2021/12/12 15:04:22;;;;;;;2.53;1.50;;;;;;;;;;5024416;28;20029;-72
2021/12/12 15:06:50;;;;;;;0.73;0.73;;;;;;;;;;5022093;28;20064;-71
2021/12/12 15:09:25;;;;;;;1.02;1.02;;;;;;;;;;5023844;28;20041;-73
2021/12/12 15:11:57;;;;;;;1.42;1.33;;;;;;;;;;5027169;28;20124;-70
2021/12/12 15:14:25;;;;;;;0.55;0.55;;;;;;;;;;5043429;28;20487;-71
2021/12/12 15:16:52;;;;;;;0.75;0.75;;;;;;;;;;5035186;28;20029;-71
2021/12/12 15:19:30;;;;;;;1.02;0.93;;;;;;;;;;5039322;28;20552;-70
2021/12/12 15:22:02;;;;;;;0.05;0.05;;;;;;;;;;5032767;28;20028;-74
2021/12/12 15:24:30;;;;;;;3.50;1.65;;;;;;;;;;5036813;28;20045;-72
2021/12/12 15:26:58;;;;;;;0.40;0.38;;;;;;;;;;5032994;28;20396;-73